Time;durP1;ratioP1;P1;durP2;ratioP2;P2;SDS_P1;SDS_P2;PMS_P1;PMS_P2;Temp;Humidity;BMP_temperature;BMP_pressure;BME280_temperature;BME280_humidity;BME280_pressure;Samples;Min_cycle;Max_cycle;Signal;HPM_P1;HPM_P2
2023/06/03 00:01:10;;;;;;;;;;;;;;;5.40;66.11;102196.67;108567;1265;59133;-81
2023/06/03 00:03:47;;;;;;;;;;;;;;;5.37;66.07;102194.54;108538;1266;72135;-82
2023/06/03 00:06:13;;;;;;;;;;;;;;;5.35;66.29;102196.27;108306;1267;125170;-82
2023/06/03 00:08:45;;;;;;;;;;;;;;;5.31;66.38;102196.23;108468;1267;59170;-81
2023/06/03 00:11:14;;;;;;;;;;;;;;;5.29;66.39;102194.16;108340;1268;124831;-81
2023/06/03 00:13:53;;;;;;;;;;;;;;;5.28;66.50;102196.17;108383;1264;60115;-81
2023/06/03 00:16:26;;;;;;;;;;;;;;;5.28;66.63;102195.45;108477;1261;125531;-81
2023/06/03 00:18:54;;;;;;;;;;;;;;;5.29;66.67;102192.04;108541;1267;67442;-82
2023/06/03 00:21:21;;;;;;;;;;;;;;;5.29;66.69;102190.65;108477;1267;71384;-82
2023/06/03 00:23:48;;;;;;;;;;;;;;;5.30;66.66;102192.98;108472;1263;124105;-81
2023/06/03 00:26:18;;;;;;;;;;;;;;;5.30;66.81;102190.39;108578;1267;59834;-81
2023/06/03 00:28:50;;;;;;;;;;;;;;;5.31;66.78;102194.25;108441;1262;125137;-82
2023/06/03 00:31:16;;;;;;;;;;;;;;;5.31;66.82;102193.59;108558;1265;67153;-81
2023/06/03 00:33:42;;;;;;;;;;;;;;;5.31;66.89;102195.37;108567;1264;58692;-81
2023/06/03 00:36:18;;;;;;;;;;;;;;;5.33;66.80;102195.31;108382;1264;126167;-80
2023/06/03 00:38:44;;;;;;;;;;;;;;;5.34;66.83;102195.91;108592;1261;59925;-80
2023/06/03 00:41:14;;;;;;;;;;;;;;;5.35;66.81;102198.06;108366;1261;124927;-80
2023/06/03 00:43:46;;;;;;;;;;;;;;;5.35;67.12;102200.69;108567;1262;67753;-81
2023/06/03 00:46:12;;;;;;;;;;;;;;;5.36;67.08;102202.46;108652;1261;72600;-80
2023/06/03 00:48:38;;;;;;;;;;;;;;;5.38;67.21;102205.90;108345;1266;125002;-80
2023/06/03 00:51:09;;;;;;;;;;;;;;;5.38;67.15;102205.45;108525;1266;59567;-81
2023/06/03 00:53:36;;;;;;;;;;;;;;;5.38;67.23;102203.85;108482;1260;124996;-80
2023/06/03 00:56:02;;;;;;;;;;;;;;;5.39;67.24;102204.77;108466;1265;58672;-81
2023/06/03 00:58:32;;;;;;;;;;;;;;;5.39;67.05;102205.83;108375;1267;125219;-81
2023/06/03 01:01:02;;;;;;;;;;;;;;;5.40;67.22;102209.40;108458;1264;58516;-81
2023/06/03 01:03:32;;;;;;;;;;;;;;;5.39;67.19;102210.38;108452;1265;60010;-81
2023/06/03 01:06:18;;;;;;;;;;;;;;;5.38;67.19;102210.64;108506;1260;124268;-81
2023/06/03 01:08:50;;;;;;;;;;;;;;;5.37;67.24;102210.40;108567;1267;68948;-80
2023/06/03 01:11:35;;;;;;;;;;;;;;;5.35;67.20;102215.11;108267;1261;124509;-82
2023/06/03 01:14:33;;;;;;;;;;;;;;;5.32;67.19;102219.41;108400;1263;59065;-81
2023/06/03 01:17:01;;;;;;;;;;;;;;;5.27;67.28;102219.29;108417;1276;124490;-82
2023/06/03 01:19:36;;;;;;;;;;;;;;;5.24;67.46;102219.80;108367;1267;73855;-81
2023/06/03 01:22:02;;;;;;;;;;;;;;;5.22;67.52;102216.65;108521;1261;65735;-82
2023/06/03 01:24:32;;;;;;;;;;;;;;;5.19;67.67;102219.59;108402;1261;124275;-82
2023/06/03 01:26:58;;;;;;;;;;;;;;;5.16;67.64;102219.91;108435;1265;58469;-81
2023/06/03 01:29:25;;;;;;;;;;;;;;;5.14;67.79;102217.13;108538;1261;125398;-82
2023/06/03 01:31:52;;;;;;;;;;;;;;;5.12;67.65;102214.36;108441;1263;58594;-81
2023/06/03 01:34:18;;;;;;;;;;;;;;;5.09;67.84;102213.16;108321;1267;124392;-81
2023/06/03 01:36:45;;;;;;;;;;;;;;;5.07;67.86;102214.56;108380;1264;58653;-81
2023/06/03 01:39:11;;;;;;;;;;;;;;;5.06;68.06;102222.66;108568;1264;58272;-81
2023/06/03 01:41:38;;;;;;;;;;;;;;;5.03;68.02;102221.94;108344;1269;123224;-81
2023/06/03 01:44:04;;;;;;;;;;;;;;;4.99;68.04;102220.11;108533;1267;58663;-81
2023/06/03 01:46:30;;;;;;;;;;;;;;;4.96;68.17;102217.96;108247;1264;124348;-81
2023/06/03 01:48:56;;;;;;;;;;;;;;;4.93;68.19;102214.80;108468;1265;59072;-81
2023/06/03 01:51:26;;;;;;;;;;;;;;;4.91;68.21;102217.05;108481;1266;58430;-82
2023/06/03 01:53:52;;;;;;;;;;;;;;;4.88;68.24;102217.90;108327;1260;123806;-82
2023/06/03 01:56:18;;;;;;;;;;;;;;;4.85;68.38;102220.48;108566;1263;58582;-81
2023/06/03 01:58:44;;;;;;;;;;;;;;;4.82;68.59;102221.52;108404;1261;124113;-81
2023/06/03 02:01:11;;;;;;;;;;;;;;;4.81;68.62;102221.38;108507;1264;58700;-81
2023/06/03 02:03:37;;;;;;;;;;;;;;;4.79;68.76;102221.77;108539;1264;58465;-81
2023/06/03 02:06:03;;;;;;;;;;;;;;;4.77;68.91;102219.76;108405;1262;123592;-81
2023/06/03 02:08:30;;;;;;;;;;;;;;;4.76;68.78;102222.08;108429;1266;58502;-81
2023/06/03 02:10:56;;;;;;;;;;;;;;;4.74;68.85;102223.89;108380;1264;124542;-81
2023/06/03 02:13:22;;;;;;;;;;;;;;;4.73;69.08;102219.61;108473;1263;58720;-82
2023/06/03 02:15:48;;;;;;;;;;;;;;;4.73;69.02;102219.30;108448;1264;58437;-81
2023/06/03 02:18:16;;;;;;;;;;;;;;;4.75;69.05;102227.39;108391;1267;126108;-82
2023/06/03 02:20:42;;;;;;;;;;;;;;;4.76;69.23;102228.04;108533;1263;58575;-81
2023/06/03 02:23:10;;;;;;;;;;;;;;;4.81;69.18;102231.81;108414;1263;124804;-82
2023/06/03 02:25:36;;;;;;;;;;;;;;;4.84;69.14;102231.56;108424;1260;73766;-82
2023/06/03 02:28:06;;;;;;;;;;;;;;;4.88;69.03;102231.85;108456;1264;58611;-82
2023/06/03 02:30:32;;;;;;;;;;;;;;;4.91;69.26;102232.57;108364;1264;125037;-81
2023/06/03 02:32:58;;;;;;;;;;;;;;;4.95;69.26;102237.38;108467;1264;58754;-81
2023/06/03 02:35:24;;;;;;;;;;;;;;;4.99;69.30;102237.27;108387;1264;124506;-81
2023/06/03 02:37:50;;;;;;;;;;;;;;;5.02;69.06;102241.55;108566;1260;58537;-81
2023/06/03 02:40:17;;;;;;;;;;;;;;;5.08;69.23;102242.96;108574;1260;58655;-81
2023/06/03 02:42:43;;;;;;;;;;;;;;;5.14;69.17;102245.64;108469;1263;58692;-81
2023/06/03 02:45:10;;;;;;;;;;;;;;;5.19;69.20;102249.50;108363;1262;58697;-81
2023/06/03 02:47:36;;;;;;;;;;;;;;;5.25;69.09;102252.53;108402;1263;124512;-81
2023/06/03 02:50:02;;;;;;;;;;;;;;;5.32;69.07;102251.42;108429;1260;58719;-82
2023/06/03 02:52:28;;;;;;;;;;;;;;;5.38;68.96;102254.33;108345;1264;125954;-81
2023/06/03 02:54:55;;;;;;;;;;;;;;;5.44;68.99;102252.30;108471;1260;59097;-82
2023/06/03 02:57:22;;;;;;;;;;;;;;;5.50;68.86;102253.04;108473;1263;58688;-81
2023/06/03 02:59:48;;;;;;;;;;;;;;;5.56;68.75;102248.61;108293;1262;125259;-82
2023/06/03 03:02:16;;;;;;;;;;;;;;;5.63;68.72;102247.70;108455;1266;58725;-82
2023/06/03 03:04:42;;;;;;;;;;;;;;;5.71;68.72;102248.90;108346;1262;122928;-81
2023/06/03 03:07:08;;;;;;;;;;;;;;;5.78;68.62;102251.30;108449;1263;58243;-82
2023/06/03 03:09:35;;;;;;;;;;;;;;;5.84;68.59;102253.48;108539;1261;58678;-81
2023/06/03 03:12:02;;;;;;;;;;;;;;;5.93;68.51;102254.81;108117;1262;123962;-81
2023/06/03 03:14:28;;;;;;;;;;;;;;;6.03;68.49;102259.12;108254;1262;58625;-81
2023/06/03 03:16:55;;;;;;;;;;;;;;;6.13;68.38;102261.73;108442;1266;123957;-81
2023/06/03 03:19:21;;;;;;;;;;;;;;;6.23;68.28;102261.04;108604;1261;60667;-82
2023/06/03 03:21:48;;;;;;;;;;;;;;;6.36;68.25;102262.10;108615;1261;58617;-81
2023/06/03 03:24:14;;;;;;;;;;;;;;;6.88;69.38;102258.29;108426;1262;123840;-82
2023/06/03 03:26:41;;;;;;;;;;;;;;;8.51;70.96;102253.76;108531;1264;58722;-82
2023/06/03 03:29:07;;;;;;;;;;;;;;;10.47;70.31;102252.32;108358;1260;123808;-82
2023/06/03 03:31:33;;;;;;;;;;;;;;;11.84;66.98;102248.23;108533;1262;58435;-82
2023/06/03 03:34:02;;;;;;;;;;;;;;;11.73;63.37;102246.34;108528;1261;59155;-82
2023/06/03 03:36:30;;;;;;;;;;;;;;;11.15;62.25;102250.38;108293;1262;124624;-82
2023/06/03 03:39:01;;;;;;;;;;;;;;;10.67;61.91;102254.25;108293;1270;73331;-81
2023/06/03 03:41:27;;;;;;;;;;;;;;;10.45;61.96;102256.19;108280;1262;124382;-82
2023/06/03 03:43:53;;;;;;;;;;;;;;;10.40;61.75;102258.37;108492;1260;58428;-82
2023/06/03 03:46:19;;;;;;;;;;;;;;;10.59;62.10;102255.64;108405;1260;124999;-82
2023/06/03 03:48:46;;;;;;;;;;;;;;;11.06;61.93;102251.89;108433;1264;58573;-82
2023/06/03 03:51:12;;;;;;;;;;;;;;;12.32;62.65;102250.60;108245;1260;58682;-82
2023/06/03 03:53:42;;;;;;;;;;;;;;;14.48;62.47;102250.58;108308;1261;124493;-82
2023/06/03 03:56:08;;;;;;;;;;;;;;;16.67;60.75;102245.00;108374;1260;62029;-81
2023/06/03 03:58:37;;;;;;;;;;;;;;;18.46;58.47;102241.16;108435;1261;124210;-81
2023/06/03 04:01:09;;;;;;;;;;;;;;;20.06;55.99;102237.06;108665;1260;66959;-82
2023/06/03 04:03:40;;;;;;;;;;;;;;;21.40;53.71;102243.02;108349;1262;72886;-81
2023/06/03 04:06:09;;;;;;;;;;;;;;;22.64;52.03;102245.00;108253;1264;124058;-83
2023/06/03 04:08:48;;;;;;;;;;;;;;;23.72;49.65;102239.11;108433;1262;58818;-83
2023/06/03 04:11:20;;;;;;;;;;;;;;;24.64;47.85;102243.27;108215;1269;125306;-83
2023/06/03 04:13:46;;;;;;;;;;;;;;;25.67;46.27;102249.27;108429;1262;67178;-82
2023/06/03 04:16:26;;;;;;;;;;;;;;;26.39;44.54;102251.61;108242;1261;58818;-82
2023/06/03 04:18:52;;;;;;;;;;;;;;;27.21;43.06;102251.89;108352;1262;58671;-83
2023/06/03 04:21:19;;;;;;;;;;;;;;;27.88;41.71;102252.05;108402;1262;58661;-83
2023/06/03 04:23:46;;;;;;;;;;;;;;;28.48;40.41;102253.66;108353;1262;124929;-83
2023/06/03 04:26:15;;;;;;;;;;;;;;;29.01;39.02;102251.19;108392;1262;65851;-83
2023/06/03 04:28:43;;;;;;;;;;;;;;;29.52;38.05;102251.67;108386;1262;124546;-85
2023/06/03 04:31:10;;;;;;;;;;;;;;;29.99;37.15;102254.73;108553;1260;58529;-83
2023/06/03 04:33:36;;;;;;;;;;;;;;;30.73;36.22;102250.83;108572;1260;58321;-83
2023/06/03 04:36:02;;;;;;;;;;;;;;;31.30;35.32;102249.83;108387;1263;125018;-83
2023/06/03 04:38:28;;;;;;;;;;;;;;;31.76;34.24;102248.59;108423;1264;58359;-89
2023/06/03 04:40:55;;;;;;;;;;;;;;;32.12;33.32;102252.94;108314;1261;124170;-89
2023/06/03 04:43:22;;;;;;;;;;;;;;;32.40;32.35;102252.67;108433;1262;58259;-89
2023/06/03 04:45:51;;;;;;;;;;;;;;;32.57;31.50;102252.86;108342;1264;58665;-89
2023/06/03 04:48:22;;;;;;;;;;;;;;;32.86;31.14;102254.65;108428;1264;125137;-88
2023/06/03 04:50:49;;;;;;;;;;;;;;;33.38;30.50;102255.19;108476;1260;59023;-85
2023/06/03 04:53:18;;;;;;;;;;;;;;;33.89;29.84;102256.77;108393;1262;123977;-88
2023/06/03 04:55:44;;;;;;;;;;;;;;;34.20;29.20;102257.27;108303;1264;58288;-87
2023/06/03 04:58:11;;;;;;;;;;;;;;;34.47;28.61;102250.94;108411;1260;59095;-87
2023/06/03 05:00:40;;;;;;;;;;;;;;;34.74;27.94;102251.58;108530;1260;124403;-88
2023/06/03 05:03:10;;;;;;;;;;;;;;;34.95;27.64;102252.44;108528;1260;58556;-87
2023/06/03 05:05:39;;;;;;;;;;;;;;;35.25;27.01;102252.10;108359;1263;126998;-87
2023/06/03 05:08:09;;;;;;;;;;;;;;;35.43;26.72;102252.75;108428;1264;58657;-87
2023/06/03 05:10:36;;;;;;;;;;;;;;;35.80;26.11;102254.30;108399;1260;125072;-87
2023/06/03 05:13:02;;;;;;;;;;;;;;;35.89;25.55;102257.42;108386;1261;65907;-87
2023/06/03 05:15:29;;;;;;;;;;;;;;;36.02;25.13;102254.16;108400;1261;58294;-81
2023/06/03 05:18:06;;;;;;;;;;;;;;;36.27;24.64;102257.41;108354;1261;124217;-82
2023/06/03 05:20:35;;;;;;;;;;;;;;;36.26;24.00;102258.75;108539;1262;58503;-82
2023/06/03 05:23:01;;;;;;;;;;;;;;;35.94;23.47;102260.80;108286;1262;124954;-82
2023/06/03 05:25:27;;;;;;;;;;;;;;;35.74;23.14;102259.57;108294;1264;58322;-81
2023/06/03 05:27:53;;;;;;;;;;;;;;;35.58;23.09;102262.45;108346;1262;58759;-85
2023/06/03 05:30:19;;;;;;;;;;;;;;;35.82;23.00;102266.80;108378;1262;125103;-87
2023/06/03 05:32:46;;;;;;;;;;;;;;;36.04;22.37;102268.23;108433;1262;58367;-83
2023/06/03 05:35:12;;;;;;;;;;;;;;;35.89;22.33;102266.56;108408;1264;124458;-83
2023/06/03 05:37:38;;;;;;;;;;;;;;;35.43;21.81;102268.60;108517;1264;59143;-82
2023/06/03 05:40:05;;;;;;;;;;;;;;;33.37;21.27;102272.00;108290;1269;59020;-82
2023/06/03 05:42:32;;;;;;;;;;;;;;;30.53;21.64;102272.88;108181;1269;125210;-80
2023/06/03 05:44:58;;;;;;;;;;;;;;;27.97;22.64;102274.84;108520;1276;58755;-80
2023/06/03 05:47:24;;;;;;;;;;;;;;;25.82;23.52;102281.73;108465;1276;125691;-80
2023/06/03 05:49:51;;;;;;;;;;;;;;;24.06;24.43;102278.68;108574;1277;58711;-80
2023/06/03 05:52:17;;;;;;;;;;;;;;;22.70;25.71;102284.91;108532;1262;58720;-80
2023/06/03 05:54:50;;;;;;;;;;;;;;;21.66;26.28;102289.20;108377;1262;124422;-83
2023/06/03 05:57:19;;;;;;;;;;;;;;;20.62;27.28;102290.54;108326;1267;59336;-81
2023/06/03 05:59:45;;;;;;;;;;;;;;;19.81;28.04;102291.69;108342;1266;125203;-81
2023/06/03 06:02:12;;;;;;;;;;;;;;;19.10;28.67;102295.73;108525;1260;72385;-81
2023/06/03 06:04:39;;;;;;;;;;;;;;;18.56;29.35;102300.39;108281;1262;124220;-81
2023/06/03 06:07:07;;;;;;;;;;;;;;;18.20;30.10;102298.33;108368;1262;73004;-81
2023/06/03 06:09:33;;;;;;;;;;;;;;;17.87;30.57;102292.75;108553;1262;59231;-81
2023/06/03 06:12:00;;;;;;;;;;;;;;;17.58;31.06;102296.23;108392;1261;125244;-81
2023/06/03 06:14:27;;;;;;;;;;;;;;;17.23;31.34;102294.94;108530;1260;73111;-81
2023/06/03 06:16:53;;;;;;;;;;;;;;;16.99;31.92;102296.88;108552;1261;124580;-80
2023/06/03 06:19:20;;;;;;;;;;;;;;;16.77;32.30;102294.56;108566;1262;58399;-81
2023/06/03 06:21:47;;;;;;;;;;;;;;;16.60;32.60;102300.52;108390;1262;58623;-81
2023/06/03 06:24:14;;;;;;;;;;;;;;;16.29;32.60;102301.48;108396;1268;126271;-89
2023/06/03 06:26:46;;;;;;;;;;;;;;;16.00;33.03;102303.55;108484;1262;72572;-89
2023/06/03 06:29:23;;;;;;;;;;;;;;;15.78;33.43;102307.17;108386;1260;125032;-89
2023/06/03 06:31:51;;;;;;;;;;;;;;;15.64;33.64;102303.91;108495;1262;58573;-88
2023/06/03 06:34:17;;;;;;;;;;;;;;;15.41;34.05;102308.03;108591;1260;58539;-89
2023/06/03 06:36:49;;;;;;;;;;;;;;;15.32;34.36;102309.17;108382;1260;125395;-89
2023/06/03 06:39:22;;;;;;;;;;;;;;;15.32;34.47;102310.23;108519;1260;72598;-89
2023/06/03 06:41:48;;;;;;;;;;;;;;;15.32;34.64;102313.23;108417;1276;124165;-89
2023/06/03 06:44:14;;;;;;;;;;;;;;;15.29;34.50;102315.61;108375;1260;58750;-88
2023/06/03 06:46:40;;;;;;;;;;;;;;;15.24;34.32;102311.77;108479;1262;124737;-80
2023/06/03 06:49:08;;;;;;;;;;;;;;;15.19;34.42;102308.93;108382;1262;59272;-81
2023/06/03 06:51:35;;;;;;;;;;;;;;;15.21;34.79;102311.30;108344;1262;74791;-81
2023/06/03 06:54:02;;;;;;;;;;;;;;;15.23;34.92;102309.08;108233;1262;124543;-81
2023/06/03 06:56:29;;;;;;;;;;;;;;;15.22;35.08;102308.69;108339;1262;72395;-81
2023/06/03 06:58:55;;;;;;;;;;;;;;;15.20;35.33;102308.10;108294;1267;125010;-81
2023/06/03 07:01:22;;;;;;;;;;;;;;;15.20;35.38;102308.27;108396;1261;58725;-81
2023/06/03 07:03:49;;;;;;;;;;;;;;;15.19;35.43;102310.36;108457;1262;74389;-81
2023/06/03 07:06:15;;;;;;;;;;;;;;;15.14;35.64;102311.27;108183;1262;125088;-81
2023/06/03 07:08:41;;;;;;;;;;;;;;;15.04;35.68;102315.38;108423;1262;58230;-81
2023/06/03 07:11:07;;;;;;;;;;;;;;;14.94;35.80;102314.16;108376;1262;125883;-81
2023/06/03 07:13:34;;;;;;;;;;;;;;;14.83;35.70;102320.72;108396;1261;58585;-81
2023/06/03 07:16:00;;;;;;;;;;;;;;;14.70;35.88;102326.49;108393;1262;58663;-81
2023/06/03 07:18:27;;;;;;;;;;;;;;;14.60;36.09;102323.12;108319;1261;124412;-81
2023/06/03 07:20:54;;;;;;;;;;;;;;;14.57;36.24;102325.32;108354;1264;58347;-86
2023/06/03 07:23:29;;;;;;;;;;;;;;;14.60;36.39;102321.56;108249;1262;124901;-90
2023/06/03 07:25:56;;;;;;;;;;;;;;;14.66;36.48;102322.61;108502;1260;60540;-87
2023/06/03 07:28:29;;;;;;;;;;;;;;;14.62;36.62;102322.33;108341;1261;58926;-91
2023/06/03 07:30:59;;;;;;;;;;;;;;;14.64;36.64;102317.25;108338;1260;67626;-86
2023/06/03 07:33:29;;;;;;;;;;;;;;;14.69;36.57;102317.06;108473;1260;71867;-87
2023/06/03 07:35:56;;;;;;;;;;;;;;;14.77;36.50;102314.87;108208;1263;125525;-88
2023/06/03 07:38:46;;;;;;;;;;;;;;;14.85;36.57;102314.05;108483;1267;59306;-88
2023/06/03 07:41:12;;;;;;;;;;;;;;;14.92;36.55;102311.29;108383;1262;124564;-88
2023/06/03 07:43:38;;;;;;;;;;;;;;;14.96;36.66;102308.06;108452;1262;58592;-79
2023/06/03 07:46:05;;;;;;;;;;;;;;;15.04;36.66;102311.31;108356;1262;58636;-78
2023/06/03 07:48:32;;;;;;;;;;;;;;;15.10;36.59;102311.33;108170;1263;124617;-79
2023/06/03 07:50:58;;;;;;;;;;;;;;;15.16;36.45;102306.76;108257;1264;60488;-79
2023/06/03 07:53:24;;;;;;;;;;;;;;;15.19;36.45;102310.89;108421;1262;124046;-78
2023/06/03 07:55:51;;;;;;;;;;;;;;;15.15;36.52;102305.66;108244;1262;58640;-80
2023/06/03 07:58:18;;;;;;;;;;;;;;;15.13;36.50;102304.36;108503;1262;71448;-79
2023/06/03 08:00:45;;;;;;;;;;;;;;;15.19;36.68;102305.07;108433;1262;124376;-79
2023/06/03 08:03:15;;;;;;;;;;;;;;;15.30;36.63;102303.80;108424;1262;58698;-78
2023/06/03 08:05:41;;;;;;;;;;;;;;;15.40;36.71;102306.21;108112;1262;125505;-79
2023/06/03 08:08:10;;;;;;;;;;;;;;;15.50;36.98;102306.17;108364;1262;66921;-80
2023/06/03 08:10:36;;;;;;;;;;;;;;;15.69;37.17;102306.01;108305;1261;124232;-80
2023/06/03 08:13:03;;;;;;;;;;;;;;;15.89;37.07;102307.49;108565;1262;58262;-80
2023/06/03 08:15:32;;;;;;;;;;;;;;;16.06;36.42;102300.17;108481;1260;59329;-80
2023/06/03 08:17:59;;;;;;;;;;;;;;;16.18;36.27;102298.73;108368;1260;125149;-80
2023/06/03 08:20:25;;;;;;;;;;;;;;;16.29;36.54;102295.83;108543;1264;58763;-81
2023/06/03 08:22:51;;;;;;;;;;;;;;;16.43;36.82;102294.60;108343;1262;124397;-80
2023/06/03 08:25:17;;;;;;;;;;;;;;;16.59;36.38;102299.59;108596;1261;58456;-80
2023/06/03 08:27:44;;;;;;;;;;;;;;;16.66;35.70;102298.16;108524;1260;58584;-81
2023/06/03 08:30:12;;;;;;;;;;;;;;;16.66;35.59;102294.63;108493;1261;124529;-80
2023/06/03 08:32:38;;;;;;;;;;;;;;;16.68;35.41;102290.06;108579;1262;67605;-82
2023/06/03 08:35:11;;;;;;;;;;;;;;;16.64;35.29;102291.05;108238;1262;125180;-81
2023/06/03 08:37:37;;;;;;;;;;;;;;;16.71;35.55;102292.28;108369;1262;58916;-81
2023/06/03 08:40:07;;;;;;;;;;;;;;;16.89;35.93;102294.34;108370;1262;58496;-81
2023/06/03 08:42:41;;;;;;;;;;;;;;;17.02;35.73;102296.74;108179;1262;124168;-80
2023/06/03 08:45:08;;;;;;;;;;;;;;;16.93;35.32;102298.86;108496;1264;66946;-81
2023/06/03 08:47:53;;;;;;;;;;;;;;;16.82;35.34;102296.63;108441;1261;126662;-81
2023/06/03 08:50:24;;;;;;;;;;;;;;;16.85;35.49;102296.02;108478;1264;58728;-81
2023/06/03 08:52:54;;;;;;;;;;;;;;;16.99;35.89;102288.89;108440;1262;124129;-81
2023/06/03 08:55:20;;;;;;;;;;;;;;;17.17;36.03;102292.14;108349;1260;72680;-81
2023/06/03 08:57:47;;;;;;;;;;;;;;;17.12;35.69;102292.76;108126;1262;275248;-81
2023/06/03 09:00:13;;;;;;;;;;;;;;;17.01;35.67;102296.03;108254;1262;124919;-81
2023/06/03 09:02:39;;;;;;;;;;;;;;;16.96;35.85;102296.44;108537;1262;58645;-81
2023/06/03 09:05:06;;;;;;;;;;;;;;;16.95;36.01;102298.38;108417;1262;124783;-81
2023/06/03 09:07:33;;;;;;;;;;;;;;;17.04;35.99;102299.84;108466;1262;73746;-81
2023/06/03 09:10:00;;;;;;;;;;;;;;;17.01;35.85;102298.52;108409;1260;58374;-80
2023/06/03 09:12:26;;;;;;;;;;;;;;;16.95;36.35;102298.36;108460;1262;124553;-81
2023/06/03 09:14:55;;;;;;;;;;;;;;;16.95;36.44;102300.33;108407;1262;58622;-81
2023/06/03 09:17:24;;;;;;;;;;;;;;;16.92;36.54;102300.61;108359;1262;124041;-81
2023/06/03 09:19:51;;;;;;;;;;;;;;;16.98;36.55;102298.45;108408;1262;73665;-81
2023/06/03 09:22:18;;;;;;;;;;;;;;;17.00;36.72;102299.20;108475;1264;67341;-81
2023/06/03 09:24:44;;;;;;;;;;;;;;;16.92;36.45;102295.28;108356;1267;124730;-81
2023/06/03 09:27:10;;;;;;;;;;;;;;;16.77;36.62;102292.77;108509;1265;58763;-80
2023/06/03 09:29:36;;;;;;;;;;;;;;;16.81;36.67;102296.60;108451;1262;124187;-79
2023/06/03 09:32:03;;;;;;;;;;;;;;;16.75;36.44;102293.79;108362;1262;58893;-80
2023/06/03 09:34:29;;;;;;;;;;;;;;;16.75;36.46;102295.21;108317;1262;125111;-80
2023/06/03 09:36:55;;;;;;;;;;;;;;;16.76;36.18;102291.67;108399;1260;58664;-81
2023/06/03 09:39:31;;;;;;;;;;;;;;;16.78;36.02;102291.21;108457;1262;59303;-79
2023/06/03 09:41:57;;;;;;;;;;;;;;;16.92;36.14;102292.27;108322;1263;124639;-80
2023/06/03 09:44:24;;;;;;;;;;;;;;;17.09;36.22;102291.79;108604;1262;73548;-79
2023/06/03 09:46:52;;;;;;;;;;;;;;;17.16;35.91;102290.35;108211;1267;125138;-80
2023/06/03 09:49:19;;;;;;;;;;;;;;;17.32;36.18;102287.87;108526;1261;73821;-80
2023/06/03 09:51:48;;;;;;;;;;;;;;;17.55;36.21;102291.01;108342;1264;59323;-80
2023/06/03 09:54:27;;;;;;;;;;;;;;;17.75;36.04;102292.13;108347;1266;124682;-81
2023/06/03 09:56:53;;;;;;;;;;;;;;;17.92;35.67;102294.63;108472;1264;73985;-82
2023/06/03 09:59:21;;;;;;;;;;;;;;;18.02;35.61;102290.90;108388;1262;125072;-81
2023/06/03 10:02:20;;;;;;;;;;;;;;;18.14;35.56;102290.76;108165;1267;72772;-86
2023/06/03 10:04:46;;;;;;;;;;;;;;;18.31;35.41;102293.39;108229;1262;124224;-80
2023/06/03 10:07:18;;;;;;;;;;;;;;;18.32;35.12;102291.80;108455;1262;59159;-81
2023/06/03 10:09:49;;;;;;;;;;;;;;;18.36;35.22;102288.31;108361;1262;73814;-82
2023/06/03 10:12:16;;;;;;;;;;;;;;;18.44;35.20;102290.41;108247;1262;124976;-82
2023/06/03 10:14:49;;;;;;;;;;;;;;;18.54;35.36;102289.15;108430;1262;71099;-83
2023/06/03 10:17:15;;;;;;;;;;;;;;;18.54;35.25;102289.52;108251;1262;125378;-81
2023/06/03 10:19:48;;;;;;;;;;;;;;;18.48;34.98;102288.52;108308;1261;60070;-81
2023/06/03 10:22:16;;;;;;;;;;;;;;;18.43;35.07;102289.67;108325;1265;72966;-81
2023/06/03 10:24:42;;;;;;;;;;;;;;;18.40;35.08;102289.45;108209;1265;125859;-82
2023/06/03 10:27:12;;;;;;;;;;;;;;;18.38;35.01;102286.58;108357;1262;73464;-81
2023/06/03 10:29:39;;;;;;;;;;;;;;;18.34;34.94;102286.49;108309;1277;124197;-81
2023/06/03 10:32:05;;;;;;;;;;;;;;;18.30;34.78;102285.36;108445;1262;60302;-81
2023/06/03 10:34:35;;;;;;;;;;;;;;;18.24;34.77;102282.96;108302;1262;125422;-81
2023/06/03 10:37:02;;;;;;;;;;;;;;;18.23;34.71;102283.12;108376;1262;68300;-81
2023/06/03 10:39:31;;;;;;;;;;;;;;;18.15;34.57;102279.23;108470;1261;71316;-81
2023/06/03 10:42:25;;;;;;;;;;;;;;;18.09;34.63;102280.55;108224;1263;124285;-83
2023/06/03 10:45:23;;;;;;;;;;;;;;;17.93;34.81;102276.35;108489;1262;60142;-83
2023/06/03 10:48:36;;;;;;;;;;;;;;;17.80;34.74;102279.62;108305;1264;124462;-82
2023/06/03 10:51:36;;;;;;;;;;;;;;;17.56;34.74;102278.08;108356;1262;66628;-84
2023/06/03 10:54:38;;;;;;;;;;;;;;;17.41;34.96;102278.11;108083;1262;124410;-84
2023/06/03 10:57:21;;;;;;;;;;;;;;;17.38;35.40;102273.97;108539;1264;59379;-82
2023/06/03 11:00:02;;;;;;;;;;;;;;;17.46;35.48;102272.02;108412;1262;124052;-83
2023/06/03 11:03:04;;;;;;;;;;;;;;;17.49;35.27;102266.73;108471;1262;73602;-82
2023/06/03 11:06:06;;;;;;;;;;;;;;;17.41;35.19;102264.10;108390;1262;124360;-83
2023/06/03 11:09:15;;;;;;;;;;;;;;;;;;;;;
2023/06/03 11:11:44;;;;;;;;;;;;;;;17.53;35.31;102261.84;108345;1263;124146;-82
2023/06/03 11:14:25;;;;;;;;;;;;;;;17.60;35.35;102263.58;108557;1262;58513;-81
2023/06/03 11:20:19;;;;;;;;;;;;;;;17.79;35.25;102245.51;108373;1262;65804;-83
2023/06/03 11:26:55;;;;;;;;;;;;;;;18.05;35.23;102239.10;108474;1262;58592;-83
2023/06/03 11:36:45;;;;;;;;;;;;;;;18.27;34.23;102246.93;108113;1261;124350;-80
2023/06/03 11:39:11;;;;;;;;;;;;;;;18.23;33.89;102240.48;108470;1262;72781;-81
2023/06/03 11:42:14;;;;;;;;;;;;;;;18.35;33.76;102234.62;108374;1264;124160;-83
2023/06/03 11:45:27;;;;;;;;;;;;;;;18.45;33.71;102233.56;108459;1262;60642;-85
2023/06/03 11:48:15;;;;;;;;;;;;;;;18.68;33.92;102231.77;108176;1267;124189;-83
2023/06/03 11:50:48;;;;;;;;;;;;;;;18.94;33.73;102225.95;108389;1262;67003;-83
2023/06/03 11:54:27;;;;;;;;;;;;;;;19.18;33.48;102229.66;108519;1262;72627;-83
2023/06/03 11:56:22;;;;;;;;;;;;;;;19.48;33.30;102226.82;108292;1262;58608;-83
2023/06/03 11:58:52;;;;;;;;;;;;;;;19.68;33.07;102226.90;108378;1264;59311;-83
2023/06/03 12:01:24;;;;;;;;;;;;;;;19.92;32.84;102226.44;108474;1261;124350;-84
2023/06/03 12:03:57;;;;;;;;;;;;;;;20.10;32.59;102224.13;108541;1262;67789;-84
2023/06/03 12:06:54;;;;;;;;;;;;;;;20.26;32.37;102222.66;108303;1262;124067;-84
2023/06/03 12:09:28;;;;;;;;;;;;;;;20.36;32.28;102212.75;108242;1264;60333;-82
2023/06/03 12:11:54;;;;;;;;;;;;;;;20.39;32.00;102213.48;108295;1262;125441;-83
2023/06/03 12:14:28;;;;;;;;;;;;;;;20.30;31.78;102211.27;108530;1265;74573;-81
2023/06/03 12:16:55;;;;;;;;;;;;;;;20.12;31.72;102214.52;108414;1262;65623;-81
2023/06/03 12:19:21;;;;;;;;;;;;;;;20.18;31.92;102211.71;108350;1262;124873;-81
2023/06/03 12:22:02;;;;;;;;;;;;;;;20.28;31.53;102208.94;108519;1262;59380;-81
2023/06/03 12:24:31;;;;;;;;;;;;;;;20.27;31.54;102205.02;108505;1261;123922;-81
2023/06/03 12:27:11;;;;;;;;;;;;;;;20.19;31.39;102207.08;108608;1262;72602;-81
2023/06/03 12:29:43;;;;;;;;;;;;;;;19.95;31.15;102202.60;108449;1262;124689;-81
2023/06/03 12:32:10;;;;;;;;;;;;;;;19.74;31.61;102199.55;108451;1265;73834;-81
2023/06/03 12:34:43;;;;;;;;;;;;;;;19.66;31.77;102194.27;108548;1265;58443;-84
2023/06/03 12:37:41;;;;;;;;;;;;;;;19.48;31.76;102195.31;108226;1262;124868;-83
2023/06/03 12:40:22;;;;;;;;;;;;;;;19.15;31.67;102194.73;108589;1262;71630;-83
2023/06/03 12:43:06;;;;;;;;;;;;;;;18.98;31.98;102195.78;108475;1262;124132;-83
2023/06/03 12:45:36;;;;;;;;;;;;;;;18.82;32.07;102193.40;108341;1262;73267;-81
2023/06/03 12:48:21;;;;;;;;;;;;;;;18.68;32.06;102187.33;108114;1265;124324;-84
2023/06/03 12:54:16;;;;;;;;;;;;;;;18.59;32.35;102190.04;108399;1262;124011;-82
2023/06/03 12:56:43;;;;;;;;;;;;;;;18.59;32.20;102189.14;108633;1261;58632;-82
2023/06/03 12:59:12;;;;;;;;;;;;;;;18.55;32.20;102181.45;108401;1262;124095;-80